createdAt,value
2022-10-23T00:01:16.942Z,13.66
2022-10-23T00:03:45.331Z,13.64
2022-10-23T00:06:13.731Z,13.63
2022-10-23T00:08:41.779Z,13.60
2022-10-23T00:11:10.158Z,13.59
2022-10-23T00:13:38.329Z,13.54
2022-10-23T00:16:06.843Z,13.50
2022-10-23T00:18:37.394Z,13.46
2022-10-23T00:21:05.529Z,13.43
2022-10-23T00:23:33.194Z,13.39
2022-10-23T00:26:01.142Z,13.38
2022-10-23T00:28:28.818Z,13.35
2022-10-23T00:30:56.577Z,13.33
2022-10-23T00:33:24.250Z,13.32
2022-10-23T00:35:53.230Z,13.30
2022-10-23T00:38:20.890Z,13.31
2022-10-23T00:43:23.065Z,13.31
2022-10-23T00:45:50.822Z,13.30
2022-10-23T00:48:19.017Z,13.30
2022-10-23T00:50:48.939Z,13.30
2022-10-23T00:53:21.058Z,13.30
2022-10-23T00:55:51.433Z,13.26
2022-10-23T00:58:21.728Z,13.25
2022-10-23T01:00:52.005Z,13.22
2022-10-23T01:03:22.573Z,13.20
2022-10-23T01:05:54.397Z,13.15
2022-10-23T01:08:30.520Z,13.13
2022-10-23T01:11:04.961Z,13.09
2022-10-23T01:13:40.662Z,13.09
2022-10-23T01:16:14.911Z,13.09
2022-10-23T01:18:47.014Z,13.07
2022-10-23T01:21:19.794Z,13.06
2022-10-23T01:24:08.924Z,13.04
2022-10-23T01:26:56.142Z,13.02
2022-10-23T01:29:32.027Z,13.02
2022-10-23T01:32:05.214Z,13.02
2022-10-23T01:34:40.894Z,13.00
2022-10-23T01:37:14.073Z,13.00
2022-10-23T01:39:48.254Z,13.00
2022-10-23T01:42:20.787Z,13.00
2022-10-23T01:44:51.264Z,12.98
2022-10-23T01:47:24.308Z,12.98
2022-10-23T01:49:53.499Z,12.97
2022-10-23T01:52:22.208Z,12.99
2022-10-23T01:54:52.598Z,13.00
2022-10-23T01:57:23.009Z,13.03
2022-10-23T01:59:57.348Z,13.03
2022-10-23T02:02:27.556Z,13.01
2022-10-23T02:05:00.437Z,13.01
2022-10-23T02:07:28.325Z,13.00
2022-10-23T02:09:56.136Z,13.02
2022-10-23T02:12:31.304Z,13.06
2022-10-23T02:15:08.168Z,13.07
2022-10-23T02:17:52.507Z,13.06
2022-10-23T02:20:26.372Z,13.05
2022-10-23T02:23:01.386Z,13.03
2022-10-23T02:25:37.396Z,13.02
2022-10-23T02:28:09.495Z,13.00
2022-10-23T02:30:42.308Z,12.99
2022-10-23T02:33:11.378Z,12.98
2022-10-23T02:35:39.063Z,12.97
2022-10-23T02:38:28.378Z,12.97
2022-10-23T02:40:59.193Z,12.99
2022-10-23T02:43:33.238Z,13.00
2022-10-23T02:46:23.521Z,13.01
2022-10-23T02:48:58.902Z,12.98
2022-10-23T02:51:35.031Z,13.00
2022-10-23T02:54:08.574Z,13.00
2022-10-23T02:56:45.355Z,13.01
2022-10-23T02:59:21.397Z,13.05
2022-10-23T03:01:54.331Z,13.04
2022-10-23T03:04:26.035Z,13.04
2022-10-23T03:06:53.786Z,13.02
2022-10-23T03:09:21.524Z,13.04
2022-10-23T03:11:49.198Z,13.02
2022-10-23T03:14:16.868Z,13.01
2022-10-23T03:16:44.489Z,13.00
2022-10-23T03:19:14.025Z,13.01
2022-10-23T03:21:41.659Z,13.00
2022-10-23T03:24:09.712Z,12.99
2022-10-23T03:26:37.357Z,12.97
2022-10-23T03:29:04.982Z,12.97
2022-10-23T03:31:32.633Z,12.94
2022-10-23T03:34:00.545Z,12.91
2022-10-23T03:36:29.626Z,12.92
2022-10-23T03:39:00.037Z,12.90
2022-10-23T03:41:27.708Z,12.91
2022-10-23T03:43:55.338Z,12.91
2022-10-23T03:46:22.984Z,12.89
2022-10-23T03:48:50.659Z,12.88
2022-10-23T03:51:18.342Z,12.87
2022-10-23T03:53:47.368Z,12.88
2022-10-23T03:56:14.982Z,12.87
2022-10-23T03:58:42.615Z,12.89
2022-10-23T04:01:10.548Z,12.91
2022-10-23T04:03:38.256Z,12.91
2022-10-23T04:06:06.389Z,12.93
2022-10-23T04:08:34.069Z,12.93
2022-10-23T04:11:03.241Z,12.94
2022-10-23T04:13:30.843Z,12.93
2022-10-23T04:15:58.552Z,12.94
2022-10-23T04:18:26.219Z,12.95
2022-10-23T04:20:54.012Z,12.95
2022-10-23T04:23:21.873Z,12.95
2022-10-23T04:25:49.530Z,12.95
2022-10-23T04:28:18.523Z,12.93
2022-10-23T04:30:46.153Z,12.93
2022-10-23T04:33:13.769Z,12.94
2022-10-23T04:35:41.424Z,12.94
2022-10-23T04:38:09.075Z,12.93
2022-10-23T04:40:36.682Z,12.93
2022-10-23T04:43:04.717Z,12.92
2022-10-23T04:45:33.747Z,12.92
2022-10-23T04:48:01.459Z,12.92
2022-10-23T04:50:29.121Z,12.92
2022-10-23T04:52:57.943Z,12.92
2022-10-23T04:55:26.271Z,12.94
2022-10-23T04:57:53.935Z,12.93
2022-10-23T05:00:21.824Z,12.91
2022-10-23T05:02:50.990Z,12.93
2022-10-23T05:05:19.171Z,12.95
2022-10-23T05:07:46.837Z,12.97
2022-10-23T05:10:14.493Z,12.98
2022-10-23T05:12:42.162Z,12.98
2022-10-23T05:15:10.442Z,13.00
2022-10-23T05:17:40.959Z,13.00
2022-10-23T05:20:14.787Z,13.00
2022-10-23T05:22:45.512Z,12.98
2022-10-23T05:25:14.075Z,12.97
2022-10-23T05:27:42.144Z,12.97
2022-10-23T05:30:11.130Z,12.97
2022-10-23T05:32:39.732Z,12.99
2022-10-23T05:35:11.717Z,13.01
2022-10-23T05:37:41.053Z,13.02
2022-10-23T05:40:09.822Z,13.03
2022-10-23T05:42:40.815Z,13.04
2022-10-23T05:45:10.404Z,13.04
2022-10-23T05:47:38.041Z,13.05
2022-10-23T05:50:06.239Z,13.04
2022-10-23T05:52:35.319Z,13.07
2022-10-23T05:55:02.964Z,13.06
2022-10-23T05:57:33.558Z,13.06
2022-10-23T06:00:01.188Z,13.07
2022-10-23T06:02:29.132Z,13.06
2022-10-23T06:04:56.895Z,13.05
2022-10-23T06:07:25.964Z,13.07
2022-10-23T06:09:55.450Z,13.11
2022-10-23T06:12:23.483Z,13.11
2022-10-23T06:14:51.963Z,13.10
2022-10-23T06:17:19.764Z,13.08
2022-10-23T06:19:47.518Z,13.07
2022-10-23T06:24:53.127Z,13.06
2022-10-23T06:27:22.275Z,13.04
2022-10-23T06:29:50.009Z,13.04
2022-10-23T06:32:18.448Z,13.06
2022-10-23T06:34:46.150Z,13.06
2022-10-23T06:37:13.845Z,13.08
2022-10-23T06:39:41.535Z,13.08
2022-10-23T06:42:09.270Z,13.10
2022-10-23T06:44:38.287Z,13.10
2022-10-23T06:47:06.756Z,13.09
2022-10-23T06:49:34.479Z,13.08
2022-10-23T06:52:02.137Z,13.09
2022-10-23T06:54:29.819Z,13.09
2022-10-23T06:56:57.467Z,13.11
2022-10-23T06:59:25.399Z,13.15
2022-10-23T07:04:27.026Z,13.20
2022-10-23T07:06:56.194Z,13.22
2022-10-23T07:09:24.104Z,13.26
2022-10-23T07:11:51.743Z,13.32
2022-10-23T07:14:19.381Z,13.36
2022-10-23T07:16:47.017Z,13.41
2022-10-23T07:19:16.043Z,13.47
2022-10-23T07:21:43.714Z,13.53
2022-10-23T07:24:11.394Z,13.59
2022-10-23T07:26:39.131Z,13.64
2022-10-23T07:29:07.515Z,13.70
2022-10-23T07:31:35.198Z,13.74
2022-10-23T07:34:03.092Z,13.79
2022-10-23T07:36:32.529Z,13.82
2022-10-23T07:39:00.364Z,13.87
2022-10-23T07:41:30.267Z,13.93
2022-10-23T07:43:57.890Z,13.98
2022-10-23T07:46:25.607Z,14.05
2022-10-23T07:48:53.288Z,14.11
2022-10-23T07:51:20.979Z,14.16
2022-10-23T07:53:50.162Z,14.21
2022-10-23T07:56:21.911Z,14.27
2022-10-23T07:58:53.672Z,14.31
2022-10-23T08:01:28.369Z,14.35
2022-10-23T08:03:56.198Z,14.40
2022-10-23T08:06:23.913Z,14.42
2022-10-23T08:08:52.953Z,14.48
2022-10-23T08:11:26.229Z,14.52
2022-10-23T08:13:54.891Z,14.56
2022-10-23T08:16:23.542Z,14.61
2022-10-23T08:18:52.196Z,14.66
2022-10-23T08:21:20.339Z,14.73
2022-10-23T08:23:48.008Z,14.80
2022-10-23T08:26:17.120Z,14.88
2022-10-23T08:28:44.807Z,14.96
2022-10-23T08:31:14.386Z,15.06
2022-10-23T08:33:43.002Z,15.15
2022-10-23T08:36:17.986Z,15.25
2022-10-23T08:38:45.876Z,15.35
2022-10-23T08:41:28.939Z,15.45
2022-10-23T08:44:04.016Z,15.56
2022-10-23T08:46:38.124Z,15.65
2022-10-23T08:49:18.883Z,15.75
2022-10-23T08:51:51.252Z,15.84
2022-10-23T08:54:22.714Z,15.93
2022-10-23T08:56:55.458Z,15.99
2022-10-23T08:59:28.501Z,16.07
2022-10-23T09:02:01.586Z,16.12
2022-10-23T09:04:29.793Z,16.17
2022-10-23T09:07:07.235Z,16.20
2022-10-23T09:09:52.242Z,16.21
2022-10-23T09:12:24.310Z,16.25
2022-10-23T09:15:08.276Z,16.33
2022-10-23T09:17:39.059Z,16.38
2022-10-23T09:20:15.455Z,16.45
2022-10-23T09:22:43.849Z,16.50
2022-10-23T09:25:12.545Z,16.53
2022-10-23T09:27:49.627Z,16.57
2022-10-23T09:30:27.727Z,16.60
2022-10-23T09:32:55.464Z,16.66
2022-10-23T09:35:24.703Z,16.72
2022-10-23T09:37:54.062Z,16.80
2022-10-23T09:40:29.203Z,16.86
2022-10-23T09:43:00.346Z,16.91
2022-10-23T09:45:31.698Z,17.00
2022-10-23T09:48:23.769Z,17.11
2022-10-23T09:50:54.068Z,17.18
2022-10-23T09:53:31.553Z,17.26
2022-10-23T09:56:02.910Z,17.32
2022-10-23T09:58:36.160Z,17.43
2022-10-23T10:01:05.131Z,17.53
2022-10-23T10:03:33.216Z,17.58
2022-10-23T10:06:03.231Z,17.64
2022-10-23T10:08:40.903Z,17.68
2022-10-23T10:11:17.021Z,17.73
2022-10-23T10:14:05.667Z,17.77
2022-10-23T10:16:43.770Z,17.80
2022-10-23T10:19:24.585Z,17.81
2022-10-23T10:22:04.720Z,17.86
2022-10-23T10:24:40.994Z,17.89
2022-10-23T10:27:18.326Z,17.91
2022-10-23T10:30:02.806Z,17.94
2022-10-23T10:32:41.305Z,17.97
2022-10-23T10:35:21.468Z,18.00
2022-10-23T10:38:03.272Z,18.01
2022-10-23T10:40:33.811Z,18.03
2022-10-23T10:43:25.003Z,18.07
2022-10-23T10:46:01.677Z,18.13
2022-10-23T10:48:41.783Z,18.19
2022-10-23T10:51:19.795Z,18.26
2022-10-23T10:54:01.118Z,18.31
2022-10-23T10:56:32.592Z,18.39
2022-10-23T10:59:02.915Z,18.46
2022-10-23T11:01:37.821Z,18.52
2022-10-23T11:04:14.028Z,18.53
2022-10-23T11:06:45.005Z,18.53
2022-10-23T11:09:22.239Z,18.55
2022-10-23T11:11:50.430Z,18.55
2022-10-23T11:14:20.829Z,18.56
2022-10-23T11:16:52.569Z,18.58
2022-10-23T11:19:25.165Z,18.66
2022-10-23T11:21:59.367Z,18.74
2022-10-23T11:25:02.829Z,18.85
2022-10-23T11:28:03.374Z,18.93
2022-10-23T11:30:37.794Z,18.98
2022-10-23T11:33:45.584Z,19.04
2022-10-23T11:36:18.184Z,19.11
2022-10-23T11:38:48.939Z,19.18
2022-10-23T11:41:25.575Z,19.24
2022-10-23T11:43:57.048Z,19.29
2022-10-23T11:46:32.465Z,19.32
2022-10-23T11:49:03.165Z,19.39
2022-10-23T11:51:33.223Z,19.41
2022-10-23T11:54:24.744Z,19.40
2022-10-23T11:56:56.817Z,19.43
2022-10-23T11:59:30.449Z,19.48
2022-10-23T12:02:00.725Z,19.52
2022-10-23T12:04:39.628Z,19.53
2022-10-23T12:07:18.138Z,19.51
2022-10-23T12:09:47.835Z,19.49
2022-10-23T12:12:19.011Z,19.49
2022-10-23T12:14:48.400Z,19.57
2022-10-23T12:17:36.788Z,19.67
2022-10-23T12:20:20.553Z,19.79
2022-10-23T12:22:58.915Z,19.91
2022-10-23T12:25:34.799Z,20.03
2022-10-23T12:28:09.703Z,20.10
2022-10-23T12:30:44.201Z,20.18
2022-10-23T12:33:29.468Z,20.21
2022-10-23T12:36:23.568Z,20.26
2022-10-23T12:38:51.745Z,20.24
2022-10-23T12:41:24.157Z,20.22
2022-10-23T12:43:55.536Z,20.23
2022-10-23T12:46:31.528Z,20.23
2022-10-23T12:49:03.852Z,20.24
2022-10-23T12:51:34.073Z,20.22
2022-10-23T12:54:02.510Z,20.26
2022-10-23T12:56:36.513Z,20.27
2022-10-23T12:59:06.352Z,20.32
2022-10-23T13:01:36.344Z,20.38
2022-10-23T13:04:14.935Z,20.42
2022-10-23T13:06:47.122Z,20.45
2022-10-23T13:09:25.583Z,20.46
2022-10-23T13:11:53.860Z,20.48
2022-10-23T13:14:33.954Z,20.47
2022-10-23T13:17:03.719Z,20.48
2022-10-23T13:19:31.625Z,20.49
2022-10-23T13:22:01.829Z,20.49
2022-10-23T13:24:31.667Z,20.42
2022-10-23T13:27:00.171Z,20.37
2022-10-23T13:29:29.963Z,20.37
2022-10-23T13:31:58.024Z,20.32
2022-10-23T13:34:28.391Z,20.28
2022-10-23T13:37:03.291Z,20.29
2022-10-23T13:39:32.822Z,20.30
2022-10-23T13:42:10.732Z,20.32
2022-10-23T13:44:38.573Z,20.36
2022-10-23T13:47:07.567Z,20.35
2022-10-23T13:49:35.238Z,20.32
2022-10-23T13:52:04.372Z,20.33
2022-10-23T13:54:32.084Z,20.32
2022-10-23T13:56:59.887Z,20.30
2022-10-23T13:59:27.574Z,20.27
2022-10-23T14:01:55.390Z,20.28
2022-10-23T14:04:23.903Z,20.27
2022-10-23T14:06:58.639Z,20.25
2022-10-23T14:09:27.885Z,20.22
2022-10-23T14:11:55.575Z,20.21
2022-10-23T14:14:23.292Z,20.20
2022-10-23T14:16:52.727Z,20.20
2022-10-23T14:19:20.442Z,20.18
2022-10-23T14:21:48.299Z,20.18
2022-10-23T14:24:16.003Z,20.17
2022-10-23T14:26:45.108Z,20.15
2022-10-23T14:29:21.283Z,20.14
2022-10-23T14:31:51.752Z,20.12
2022-10-23T14:34:19.541Z,20.09
2022-10-23T14:37:03.466Z,20.07
2022-10-23T14:39:35.047Z,20.04
2022-10-23T14:42:04.303Z,20.02
2022-10-23T14:44:32.079Z,19.98
2022-10-23T14:47:00.087Z,19.96
2022-10-23T14:49:27.810Z,19.92
2022-10-23T14:51:55.508Z,19.88
2022-10-23T14:54:23.352Z,19.85
2022-10-23T14:56:51.062Z,19.82
2022-10-23T14:59:20.174Z,19.78
2022-10-23T15:01:48.607Z,19.75
2022-10-23T15:04:16.855Z,19.71
2022-10-23T15:06:53.830Z,19.71
2022-10-23T15:09:21.578Z,19.70
2022-10-23T15:11:49.367Z,19.69
2022-10-23T15:14:17.059Z,19.66
2022-10-23T15:16:46.177Z,19.65
2022-10-23T15:19:18.412Z,19.64
2022-10-23T15:21:47.434Z,19.60
2022-10-23T15:24:15.495Z,19.58
2022-10-23T15:26:44.391Z,19.56
2022-10-23T15:29:12.722Z,19.54
2022-10-23T15:31:53.025Z,19.51
2022-10-23T15:34:22.978Z,19.48
2022-10-23T15:36:51.334Z,19.48
2022-10-23T15:39:21.700Z,19.45
2022-10-23T15:41:52.478Z,19.43
2022-10-23T15:44:22.879Z,19.38
2022-10-23T15:46:52.783Z,19.35
2022-10-23T15:49:21.166Z,19.31
2022-10-23T15:51:48.935Z,19.28
2022-10-23T15:54:19.240Z,19.23
2022-10-23T15:56:48.761Z,19.19
2022-10-23T15:59:16.935Z,19.16
2022-10-23T16:01:44.878Z,19.10
2022-10-23T16:04:14.164Z,19.03
2022-10-23T16:06:41.911Z,18.97
2022-10-23T16:09:09.642Z,18.90
2022-10-23T16:11:39.505Z,18.82
2022-10-23T16:14:07.276Z,18.77
2022-10-23T16:16:35.438Z,18.72
2022-10-23T16:19:04.792Z,18.66
2022-10-23T16:21:39.294Z,18.57
2022-10-23T16:24:09.169Z,18.53
2022-10-23T16:26:38.037Z,18.47
2022-10-23T16:29:07.544Z,18.45
2022-10-23T16:31:35.678Z,18.41
2022-10-23T16:34:05.306Z,18.38
2022-10-23T16:36:35.262Z,18.32
2022-10-23T16:39:04.053Z,18.28
2022-10-23T16:41:32.057Z,18.24
2022-10-23T16:43:59.907Z,18.21
2022-10-23T16:46:28.391Z,18.15
2022-10-23T16:48:56.099Z,18.11
2022-10-23T16:51:26.548Z,18.11
2022-10-23T16:53:56.591Z,18.09
2022-10-23T16:56:27.789Z,18.09
2022-10-23T16:58:56.451Z,18.06
2022-10-23T17:01:29.215Z,18.00
2022-10-23T17:04:01.417Z,17.99
2022-10-23T17:06:33.672Z,17.97
2022-10-23T17:09:03.658Z,17.98
2022-10-23T17:11:33.579Z,17.95
2022-10-23T17:14:03.588Z,17.92
2022-10-23T17:16:34.421Z,17.91
2022-10-23T17:19:03.130Z,17.89
2022-10-23T17:21:34.279Z,17.87
2022-10-23T17:24:12.455Z,17.87
2022-10-23T17:26:40.772Z,17.85
2022-10-23T17:29:10.539Z,17.85
2022-10-23T17:31:40.563Z,17.84
2022-10-23T17:34:11.595Z,17.81
2022-10-23T17:36:43.123Z,17.79
2022-10-23T17:39:14.389Z,17.78
2022-10-23T17:41:42.459Z,17.77
2022-10-23T17:44:11.413Z,17.74
2022-10-23T17:46:39.305Z,17.73
2022-10-23T17:49:07.422Z,17.72
2022-10-23T17:51:36.421Z,17.70
2022-10-23T17:54:06.916Z,17.69
2022-10-23T17:56:37.648Z,17.67
2022-10-23T17:59:08.141Z,17.66
2022-10-23T18:01:36.516Z,17.67
2022-10-23T18:04:06.703Z,17.67
2022-10-23T18:06:37.309Z,17.64
2022-10-23T18:09:06.673Z,17.62
2022-10-23T18:11:43.839Z,17.62
2022-10-23T18:14:15.252Z,17.57
2022-10-23T18:16:43.091Z,17.57
2022-10-23T18:19:12.141Z,17.56
2022-10-23T18:21:40.484Z,17.57
2022-10-23T18:24:08.320Z,17.56
2022-10-23T18:26:39.192Z,17.57
2022-10-23T18:29:08.583Z,17.55
2022-10-23T18:31:38.178Z,17.55
2022-10-23T18:34:17.714Z,17.53
2022-10-23T18:36:46.118Z,17.50
2022-10-23T18:39:16.770Z,17.52
2022-10-23T18:41:46.878Z,17.52
2022-10-23T18:44:17.835Z,17.50
2022-10-23T18:46:47.418Z,17.44
2022-10-23T18:49:15.278Z,17.42
2022-10-23T18:51:43.068Z,17.44
2022-10-23T18:54:14.965Z,17.43
2022-10-23T18:56:42.696Z,17.40
2022-10-23T18:59:15.084Z,17.37
2022-10-23T19:01:43.228Z,17.36
2022-10-23T19:04:14.028Z,17.35
2022-10-23T19:06:41.732Z,17.33
2022-10-23T19:09:13.866Z,17.35
2022-10-23T19:11:42.541Z,17.37
2022-10-23T19:14:12.526Z,17.41
2022-10-23T19:16:44.400Z,17.42
2022-10-23T19:19:16.699Z,17.43
2022-10-23T19:21:45.324Z,17.44
2022-10-23T19:24:16.450Z,17.42
2022-10-23T19:26:44.670Z,17.42
2022-10-23T19:29:18.064Z,17.39
2022-10-23T19:31:49.154Z,17.33
2022-10-23T19:34:19.832Z,17.28
2022-10-23T19:36:47.856Z,17.26
2022-10-23T19:39:15.713Z,17.25
2022-10-23T19:41:43.593Z,17.25
2022-10-23T19:44:11.324Z,17.28
2022-10-23T19:46:40.469Z,17.30
2022-10-23T19:49:08.825Z,17.30
2022-10-23T19:51:36.952Z,17.33
2022-10-23T19:54:04.992Z,17.35
2022-10-23T19:56:32.755Z,17.38
2022-10-23T19:59:00.514Z,17.38
2022-10-23T20:01:28.380Z,17.36
2022-10-23T20:03:57.559Z,17.33
2022-10-23T20:06:27.153Z,17.31
2022-10-23T20:08:54.969Z,17.33
2022-10-23T20:11:25.280Z,17.32
2022-10-23T20:13:53.412Z,17.33
2022-10-23T20:16:22.876Z,17.28
2022-10-23T20:18:51.498Z,17.27
2022-10-23T20:21:21.866Z,17.27
2022-10-23T20:23:50.077Z,17.29
2022-10-23T20:26:21.248Z,17.30
2022-10-23T20:28:51.308Z,17.32
2022-10-23T20:31:20.753Z,17.37
2022-10-23T20:33:48.845Z,17.43
2022-10-23T20:36:26.943Z,17.44
2022-10-23T20:38:55.658Z,17.49
2022-10-23T20:41:25.022Z,17.54
2022-10-23T20:43:52.903Z,17.58
2022-10-23T20:46:20.715Z,17.60
2022-10-23T20:48:48.475Z,17.58
2022-10-23T20:51:18.271Z,17.56
2022-10-23T20:53:48.088Z,17.49
2022-10-23T20:56:18.154Z,17.46
2022-10-23T20:58:45.958Z,17.37
2022-10-23T21:01:16.449Z,17.34
2022-10-23T21:03:45.195Z,17.34
2022-10-23T21:06:14.925Z,17.35
2022-10-23T21:08:43.126Z,17.30
2022-10-23T21:11:15.286Z,17.29
2022-10-23T21:13:44.248Z,17.26
2022-10-23T21:16:16.230Z,17.22
2022-10-23T21:18:46.444Z,17.18
2022-10-23T21:21:17.023Z,17.16
2022-10-23T21:23:44.892Z,17.10
2022-10-23T21:26:14.342Z,17.05
2022-10-23T21:28:47.398Z,17.00
2022-10-23T21:31:24.677Z,16.93
2022-10-23T21:33:53.916Z,16.90
2022-10-23T21:36:26.834Z,16.88
2022-10-23T21:39:00.390Z,16.85
2022-10-23T21:41:31.808Z,16.84
2022-10-23T21:44:03.654Z,16.82
2022-10-23T21:46:35.590Z,16.78
2022-10-23T21:49:05.209Z,16.74
2022-10-23T21:51:37.069Z,16.71
2022-10-23T21:54:06.163Z,16.68
2022-10-23T21:56:39.780Z,16.64
2022-10-23T21:59:12.752Z,16.61
2022-10-23T22:01:41.677Z,16.58
2022-10-23T22:04:10.702Z,16.57
2022-10-23T22:06:39.341Z,16.56
2022-10-23T22:09:08.150Z,16.52
2022-10-23T22:11:37.208Z,16.53
2022-10-23T22:14:04.890Z,16.53
2022-10-23T22:16:32.729Z,16.55
2022-10-23T22:19:06.784Z,16.53
2022-10-23T22:21:34.823Z,16.52
2022-10-23T22:26:32.420Z,16.49
2022-10-23T22:29:04.336Z,16.53
2022-10-23T22:31:34.112Z,16.55
2022-10-23T22:34:13.280Z,16.56
2022-10-23T22:36:51.317Z,16.55
2022-10-23T22:39:19.102Z,16.58
2022-10-23T22:41:47.473Z,16.59
2022-10-23T22:44:16.760Z,16.59
2022-10-23T22:46:44.492Z,16.59
2022-10-23T22:49:12.218Z,16.62
2022-10-23T22:51:40.635Z,16.60
2022-10-23T22:54:08.482Z,16.62
2022-10-23T22:56:36.339Z,16.60
2022-10-23T22:59:04.608Z,16.60
2022-10-23T23:01:36.408Z,16.60
2022-10-23T23:04:19.719Z,16.58
2022-10-23T23:06:53.817Z,16.56
2022-10-23T23:09:21.518Z,16.55
2022-10-23T23:11:52.668Z,16.57
2022-10-23T23:14:23.692Z,16.57
2022-10-23T23:16:54.472Z,16.57
2022-10-23T23:19:24.279Z,16.56
2022-10-23T23:21:52.076Z,16.56
2022-10-23T23:24:19.839Z,16.55
2022-10-23T23:26:47.520Z,16.57
2022-10-23T23:29:15.223Z,16.55
2022-10-23T23:31:43.050Z,16.56
2022-10-23T23:34:12.160Z,16.59
2022-10-23T23:36:39.882Z,16.61
2022-10-23T23:39:08.051Z,16.61
2022-10-23T23:41:35.762Z,16.62
2022-10-23T23:44:03.451Z,16.64
2022-10-23T23:46:31.175Z,16.65
2022-10-23T23:48:58.854Z,16.64
2022-10-23T23:51:28.003Z,16.62
2022-10-23T23:53:55.924Z,16.60
2022-10-23T23:56:23.684Z,16.60
2022-10-23T23:58:51.529Z,16.61
